createdAt,value
2023-03-28T00:02:01.541Z,1.73
2023-03-28T00:04:49.692Z,1.75
2023-03-28T00:07:36.764Z,1.77
2023-03-28T00:10:22.573Z,1.78
2023-03-28T00:13:08.478Z,1.79
2023-03-28T00:15:54.373Z,1.79
2023-03-28T00:18:41.369Z,1.79
2023-03-28T00:21:29.331Z,1.79
2023-03-28T00:24:17.117Z,1.78
2023-03-28T00:27:02.993Z,1.80
2023-03-28T00:29:49.307Z,1.83
2023-03-28T00:32:35.247Z,1.84
2023-03-28T00:35:21.446Z,1.83
2023-03-28T00:38:07.132Z,1.84
2023-03-28T00:40:56.052Z,1.83
2023-03-28T00:43:43.010Z,1.79
2023-03-28T00:46:30.711Z,1.77
2023-03-28T00:49:21.266Z,1.77
2023-03-28T00:52:07.501Z,1.75
2023-03-28T00:54:53.659Z,1.70
2023-03-28T00:57:41.838Z,1.70
2023-03-28T01:00:27.947Z,1.69
2023-03-28T01:03:19.381Z,1.66
2023-03-28T01:06:06.157Z,1.62
2023-03-28T01:08:57.765Z,1.56
2023-03-28T01:11:44.224Z,1.53
2023-03-28T01:14:33.809Z,1.46
2023-03-28T01:17:22.307Z,1.45
2023-03-28T01:20:13.573Z,1.47
2023-03-28T01:23:14.482Z,1.43
2023-03-28T01:26:05.995Z,1.42
2023-03-28T01:28:57.438Z,1.44
2023-03-28T01:31:57.814Z,1.45
2023-03-28T01:35:23.996Z,1.45
2023-03-28T01:38:13.049Z,1.44
2023-03-28T01:41:01.685Z,1.44
2023-03-28T01:43:54.043Z,1.42
2023-03-28T01:46:41.062Z,1.41
2023-03-28T01:49:29.132Z,1.40
2023-03-28T01:52:17.990Z,1.42
2023-03-28T01:55:07.165Z,1.41
2023-03-28T01:57:54.025Z,1.41
2023-03-28T02:00:43.449Z,1.40
2023-03-28T02:03:32.859Z,1.38
2023-03-28T02:06:28.261Z,1.40
2023-03-28T02:09:16.299Z,1.38
2023-03-28T02:12:25.820Z,1.34
2023-03-28T02:15:18.277Z,1.31
2023-03-28T02:18:41.562Z,1.32
2023-03-28T02:21:48.524Z,1.32
2023-03-28T02:24:53.321Z,1.30
2023-03-28T02:28:02.449Z,1.27
2023-03-28T02:31:09.568Z,1.23
2023-03-28T02:33:56.108Z,1.21
2023-03-28T02:36:44.856Z,1.18
2023-03-28T02:39:43.754Z,1.15
2023-03-28T02:42:34.077Z,1.18
2023-03-28T02:45:37.844Z,1.18
2023-03-28T02:48:28.405Z,1.16
2023-03-28T02:51:16.121Z,1.16
2023-03-28T02:54:05.346Z,1.14
2023-03-28T02:56:53.252Z,1.12
2023-03-28T02:59:54.911Z,1.16
2023-03-28T03:02:41.792Z,1.18
2023-03-28T03:05:29.195Z,1.18
2023-03-28T03:08:15.079Z,1.18
2023-03-28T03:11:01.468Z,1.19
2023-03-28T03:13:47.188Z,1.18
2023-03-28T03:16:33.068Z,1.23
2023-03-28T03:19:19.292Z,1.23
2023-03-28T03:22:06.380Z,1.26
2023-03-28T03:24:56.262Z,1.22
2023-03-28T03:27:43.730Z,1.19
2023-03-28T03:30:30.937Z,1.19
2023-03-28T03:33:38.348Z,1.16
2023-03-28T03:36:27.070Z,1.13
2023-03-28T03:39:14.727Z,1.13
2023-03-28T03:42:00.382Z,1.11
2023-03-28T03:44:51.078Z,1.10
2023-03-28T03:47:37.458Z,1.08
2023-03-28T03:50:23.709Z,1.05
2023-03-28T03:53:09.368Z,1.00
2023-03-28T03:56:02.557Z,1.01
2023-03-28T03:58:59.727Z,0.94
2023-03-28T04:01:49.240Z,0.89
2023-03-28T04:04:54.459Z,0.91
2023-03-28T04:07:46.752Z,0.88
2023-03-28T04:10:47.299Z,0.86
2023-03-28T04:13:34.907Z,0.85
2023-03-28T04:16:23.754Z,0.82
2023-03-28T04:19:18.159Z,0.81
2023-03-28T04:22:04.232Z,0.77
2023-03-28T04:24:53.279Z,0.76
2023-03-28T04:27:55.757Z,0.76
2023-03-28T04:30:45.401Z,0.78
2023-03-28T04:34:03.570Z,0.78
2023-03-28T04:36:51.845Z,0.78
2023-03-28T04:39:41.542Z,0.78
2023-03-28T04:42:47.317Z,0.75
2023-03-28T04:45:37.282Z,0.75
2023-03-28T04:48:32.991Z,0.73
2023-03-28T04:51:18.835Z,0.71
2023-03-28T04:54:04.516Z,0.70
2023-03-28T04:57:10.487Z,0.72
2023-03-28T05:00:01.428Z,0.72
2023-03-28T05:03:10.880Z,0.73
2023-03-28T05:06:12.008Z,0.73
2023-03-28T05:08:58.368Z,0.74
2023-03-28T05:11:47.358Z,0.71
2023-03-28T05:14:33.789Z,0.72
2023-03-28T05:17:34.122Z,0.71
2023-03-28T05:20:25.788Z,0.70
2023-03-28T05:23:16.191Z,0.69
2023-03-28T05:26:06.588Z,0.70
2023-03-28T05:28:53.311Z,0.66
2023-03-28T05:31:39.545Z,0.65
2023-03-28T05:34:37.038Z,0.64
2023-03-28T05:37:23.476Z,0.67
2023-03-28T05:40:16.605Z,0.65
2023-03-28T05:43:02.794Z,0.65
2023-03-28T05:45:49.772Z,0.68
2023-03-28T05:48:41.355Z,0.68
2023-03-28T05:51:27.248Z,0.72
2023-03-28T05:54:13.322Z,0.75
2023-03-28T05:57:00.540Z,0.79
2023-03-28T05:59:46.256Z,0.84
2023-03-28T06:02:34.859Z,0.93
2023-03-28T06:05:20.986Z,0.98
2023-03-28T06:08:09.111Z,1.04
2023-03-28T06:10:57.015Z,1.08
2023-03-28T06:13:49.893Z,1.19
2023-03-28T06:16:36.261Z,1.29
2023-03-28T06:19:22.740Z,1.38
2023-03-28T06:22:11.438Z,1.46
2023-03-28T06:24:58.013Z,1.56
2023-03-28T06:27:46.370Z,1.71
2023-03-28T06:30:33.673Z,1.87
2023-03-28T06:33:19.856Z,2.05
2023-03-28T06:36:06.402Z,2.25
2023-03-28T06:38:53.501Z,2.44
2023-03-28T06:41:40.641Z,2.62
2023-03-28T06:44:26.411Z,2.75
2023-03-28T06:47:32.957Z,2.86
2023-03-28T06:50:18.862Z,2.94
2023-03-28T06:53:17.690Z,2.97
2023-03-28T06:56:03.840Z,3.07
2023-03-28T06:58:50.284Z,3.10
2023-03-28T07:01:41.109Z,3.15
2023-03-28T07:04:35.020Z,3.25
2023-03-28T07:07:22.239Z,3.29
2023-03-28T07:10:09.114Z,3.36
2023-03-28T07:12:55.090Z,3.39
2023-03-28T07:15:41.038Z,3.42
2023-03-28T07:18:27.232Z,3.44
2023-03-28T07:21:15.481Z,3.49
2023-03-28T07:24:01.384Z,3.59
2023-03-28T07:27:11.755Z,3.68
2023-03-28T07:30:01.541Z,3.68
2023-03-28T07:32:56.723Z,3.77
2023-03-28T07:35:49.246Z,3.87
2023-03-28T07:38:36.897Z,3.96
2023-03-28T07:41:23.356Z,4.07
2023-03-28T07:44:09.174Z,4.19
2023-03-28T07:46:55.472Z,4.32
2023-03-28T07:49:41.492Z,4.43
2023-03-28T07:52:28.746Z,4.58
2023-03-28T07:55:16.321Z,4.67
2023-03-28T07:58:07.323Z,4.85
2023-03-28T08:00:57.180Z,4.98
2023-03-28T08:03:59.418Z,5.12
2023-03-28T08:06:54.274Z,5.31
2023-03-28T08:09:40.516Z,5.38
2023-03-28T08:12:32.971Z,5.58
2023-03-28T08:15:19.380Z,5.71
2023-03-28T08:18:05.768Z,5.84
2023-03-28T08:20:52.605Z,6.04
2023-03-28T08:23:40.810Z,6.17
2023-03-28T08:26:46.102Z,6.28
2023-03-28T08:29:34.906Z,6.53
2023-03-28T08:32:20.748Z,6.75
2023-03-28T08:35:07.203Z,6.96
2023-03-28T08:37:53.512Z,7.09
2023-03-28T08:40:40.147Z,7.31
2023-03-28T08:43:45.282Z,7.44
2023-03-28T08:46:32.403Z,7.50
2023-03-28T08:49:19.062Z,7.66
2023-03-28T08:52:06.611Z,7.93
2023-03-28T08:54:53.468Z,8.05
2023-03-28T08:57:39.822Z,8.24
2023-03-28T09:00:27.594Z,8.51
2023-03-28T09:03:15.587Z,8.50
2023-03-28T09:06:04.795Z,8.66
2023-03-28T09:09:11.347Z,8.75
2023-03-28T09:12:03.233Z,8.72
2023-03-28T09:14:53.762Z,8.84
2023-03-28T09:17:42.210Z,8.89
2023-03-28T09:20:32.047Z,8.85
2023-03-28T09:23:43.352Z,9.01
2023-03-28T09:26:38.623Z,9.01
2023-03-28T09:29:29.540Z,9.27
2023-03-28T09:32:19.214Z,9.50
2023-03-28T09:35:07.530Z,9.50
2023-03-28T09:37:55.621Z,9.69
2023-03-28T09:40:46.781Z,9.76
2023-03-28T09:43:59.407Z,9.91
2023-03-28T09:47:14.050Z,9.97
2023-03-28T09:50:20.737Z,10.07
2023-03-28T09:53:16.095Z,10.17
2023-03-28T09:56:04.800Z,10.21
2023-03-28T09:58:56.286Z,10.34
2023-03-28T10:01:56.165Z,10.66
2023-03-28T10:04:53.075Z,10.96
2023-03-28T10:07:56.329Z,11.43
2023-03-28T10:10:57.341Z,11.86
2023-03-28T10:13:43.874Z,12.13
2023-03-28T10:16:30.768Z,11.91
2023-03-28T10:19:41.000Z,12.52
2023-03-28T10:22:35.757Z,13.11
2023-03-28T10:25:23.721Z,13.66
2023-03-28T10:28:14.961Z,13.53
2023-03-28T10:31:01.690Z,13.32
2023-03-28T10:33:52.489Z,13.24
2023-03-28T10:37:01.138Z,13.07
2023-03-28T10:40:04.971Z,13.59
2023-03-28T10:43:12.363Z,13.60
2023-03-28T10:46:14.361Z,13.89
2023-03-28T10:49:15.778Z,14.33
2023-03-28T10:52:09.923Z,13.77
2023-03-28T10:54:59.358Z,13.56
2023-03-28T10:58:00.847Z,13.72
2023-03-28T11:00:49.709Z,13.85
2023-03-28T11:03:41.451Z,14.26
2023-03-28T11:06:27.540Z,14.64
2023-03-28T11:09:15.973Z,14.85
2023-03-28T11:12:43.772Z,15.27
2023-03-28T11:15:41.492Z,15.26
2023-03-28T11:18:43.583Z,15.41
2023-03-28T11:21:34.072Z,15.33
2023-03-28T11:24:25.488Z,15.40
2023-03-28T11:27:32.552Z,15.44
2023-03-28T11:30:21.980Z,14.88
2023-03-28T11:33:30.764Z,15.18
2023-03-28T11:36:23.941Z,14.96
2023-03-28T11:39:12.594Z,14.72
2023-03-28T11:41:59.514Z,14.56
2023-03-28T11:44:57.030Z,14.49
2023-03-28T11:47:44.373Z,14.43
2023-03-28T11:50:32.557Z,14.64
2023-03-28T11:53:26.017Z,14.54
2023-03-28T11:56:24.880Z,14.64
2023-03-28T11:59:26.426Z,14.84
2023-03-28T12:02:15.711Z,15.31
2023-03-28T12:05:03.022Z,15.24
2023-03-28T12:07:52.280Z,15.08
2023-03-28T12:10:46.636Z,15.14
2023-03-28T12:13:47.478Z,15.23
2023-03-28T12:16:40.635Z,15.35
2023-03-28T12:19:31.755Z,15.41
2023-03-28T12:22:26.599Z,15.81
2023-03-28T12:25:15.613Z,16.29
2023-03-28T12:28:10.096Z,15.99
2023-03-28T12:30:59.851Z,15.25
2023-03-28T12:33:52.190Z,15.25
2023-03-28T12:37:12.832Z,15.67
2023-03-28T12:40:00.267Z,15.63
2023-03-28T12:42:48.957Z,15.89
2023-03-28T12:45:39.132Z,15.99
2023-03-28T12:48:27.707Z,15.77
2023-03-28T12:51:15.984Z,15.81
2023-03-28T12:54:17.811Z,15.93
2023-03-28T12:57:04.739Z,15.69
2023-03-28T13:00:00.114Z,15.57
2023-03-28T13:03:07.059Z,15.32
2023-03-28T13:05:55.177Z,15.41
2023-03-28T13:08:45.105Z,15.21
2023-03-28T13:11:34.110Z,14.78
2023-03-28T13:14:27.565Z,14.61
2023-03-28T13:17:21.569Z,14.49
2023-03-28T13:20:14.086Z,14.31
2023-03-28T13:23:02.042Z,13.92
2023-03-28T13:25:53.409Z,13.58
2023-03-28T13:28:41.657Z,13.40
2023-03-28T13:31:27.817Z,13.18
2023-03-28T13:34:18.859Z,13.02
2023-03-28T13:37:22.577Z,12.84
2023-03-28T13:40:24.122Z,12.51
2023-03-28T13:43:23.005Z,12.47
2023-03-28T13:46:09.812Z,12.15
2023-03-28T13:48:57.082Z,12.13
2023-03-28T13:51:43.970Z,12.14
2023-03-28T13:54:31.256Z,12.15
2023-03-28T13:57:18.416Z,12.06
2023-03-28T14:00:05.837Z,11.98
2023-03-28T14:03:02.473Z,12.00
2023-03-28T14:05:48.473Z,11.80
2023-03-28T14:08:34.369Z,11.71
2023-03-28T14:11:23.135Z,11.75
2023-03-28T14:14:10.923Z,11.70
2023-03-28T14:16:56.705Z,11.61
2023-03-28T14:19:42.916Z,11.53
2023-03-28T14:22:29.408Z,11.48
2023-03-28T14:25:15.387Z,11.47
2023-03-28T14:28:08.349Z,11.39
2023-03-28T14:30:54.032Z,11.22
2023-03-28T14:33:40.171Z,11.19
2023-03-28T14:36:31.437Z,11.06
2023-03-28T14:39:18.278Z,11.03
2023-03-28T14:42:04.969Z,10.81
2023-03-28T14:44:52.973Z,10.61
2023-03-28T14:47:38.796Z,10.43
2023-03-28T14:50:25.353Z,10.24
2023-03-28T14:53:14.546Z,10.07
2023-03-28T14:56:03.426Z,9.84
2023-03-28T14:58:51.139Z,9.77
2023-03-28T15:01:38.501Z,9.78
2023-03-28T15:04:24.991Z,9.76
2023-03-28T15:07:19.055Z,9.77
2023-03-28T15:10:06.582Z,9.72
2023-03-28T15:12:57.562Z,9.67
2023-03-28T15:15:44.064Z,9.61
2023-03-28T15:18:33.858Z,9.61
2023-03-28T15:21:19.862Z,9.48
2023-03-28T15:24:06.099Z,9.49
2023-03-28T15:26:52.166Z,9.41
2023-03-28T15:29:38.406Z,9.41
2023-03-28T15:32:24.307Z,9.37
2023-03-28T15:35:23.538Z,9.30
2023-03-28T15:38:09.808Z,9.18
2023-03-28T15:41:08.079Z,9.00
2023-03-28T15:43:57.740Z,8.89
2023-03-28T15:46:43.952Z,8.79
2023-03-28T15:49:30.066Z,8.70
2023-03-28T15:52:18.525Z,8.70
2023-03-28T15:55:05.105Z,8.63
2023-03-28T15:57:50.854Z,8.60
2023-03-28T16:00:38.589Z,8.51
2023-03-28T16:03:32.450Z,8.47
2023-03-28T16:06:31.517Z,8.39
2023-03-28T16:09:19.986Z,8.34
2023-03-28T16:12:06.490Z,8.35
2023-03-28T16:15:02.079Z,8.35
2023-03-28T16:17:51.833Z,8.36
2023-03-28T16:20:56.485Z,8.27
2023-03-28T16:23:42.732Z,8.24
2023-03-28T16:26:29.866Z,8.19
2023-03-28T16:29:15.826Z,8.10
2023-03-28T16:32:01.942Z,8.07
2023-03-28T16:34:48.450Z,8.01
2023-03-28T16:37:34.486Z,7.85
2023-03-28T16:40:20.130Z,7.91
2023-03-28T16:43:08.032Z,7.82
2023-03-28T16:45:54.087Z,7.80
2023-03-28T16:48:40.478Z,7.69
2023-03-28T16:51:26.544Z,7.57
2023-03-28T16:54:13.150Z,7.49
2023-03-28T16:56:59.474Z,7.48
2023-03-28T16:59:47.860Z,7.40
2023-03-28T17:02:34.119Z,7.33
2023-03-28T17:05:20.149Z,7.27
2023-03-28T17:08:06.293Z,7.22
2023-03-28T17:10:52.757Z,7.15
2023-03-28T17:13:39.509Z,7.15
2023-03-28T17:16:27.236Z,7.12
2023-03-28T17:19:13.524Z,7.08
2023-03-28T17:22:00.464Z,7.03
2023-03-28T17:24:46.739Z,6.95
2023-03-28T17:27:32.543Z,6.87
2023-03-28T17:30:19.037Z,6.82
2023-03-28T17:33:06.510Z,6.81
2023-03-28T17:35:52.597Z,6.80
2023-03-28T17:38:38.250Z,6.72
2023-03-28T17:41:24.557Z,6.68
2023-03-28T17:44:10.478Z,6.63
2023-03-28T17:46:57.127Z,6.57
2023-03-28T17:49:44.222Z,6.56
2023-03-28T17:52:30.749Z,6.56
2023-03-28T17:55:16.801Z,6.52
2023-03-28T17:58:03.167Z,6.48
2023-03-28T18:00:48.927Z,6.43
2023-03-28T18:03:35.132Z,6.41
2023-03-28T18:06:37.017Z,6.35
2023-03-28T18:09:23.010Z,6.33
2023-03-28T18:12:08.939Z,6.27
2023-03-28T18:14:54.810Z,6.17
2023-03-28T18:17:41.117Z,6.13
2023-03-28T18:20:27.020Z,6.07
2023-03-28T18:23:13.994Z,6.08
2023-03-28T18:25:59.996Z,6.07
2023-03-28T18:28:46.010Z,6.03
2023-03-28T18:31:32.575Z,6.01
2023-03-28T18:34:18.607Z,5.92
2023-03-28T18:37:05.031Z,5.94
2023-03-28T18:39:52.066Z,5.91
2023-03-28T18:42:37.801Z,5.86
2023-03-28T18:45:23.814Z,5.80
2023-03-28T18:48:09.760Z,5.78
2023-03-28T18:50:55.649Z,5.71
2023-03-28T18:53:41.755Z,5.69
2023-03-28T18:56:29.024Z,5.66
2023-03-28T18:59:14.906Z,5.63
2023-03-28T19:02:01.017Z,5.61
2023-03-28T19:04:47.485Z,5.60
2023-03-28T19:07:33.844Z,5.58
2023-03-28T19:10:19.645Z,5.55
2023-03-28T19:13:06.780Z,5.51
2023-03-28T19:15:59.461Z,5.47
2023-03-28T19:18:46.672Z,5.44
2023-03-28T19:21:32.285Z,5.40
2023-03-28T19:24:19.892Z,5.35
2023-03-28T19:27:05.976Z,5.32
2023-03-28T19:29:52.925Z,5.29
2023-03-28T19:32:39.240Z,5.29
2023-03-28T19:35:25.809Z,5.26
2023-03-28T19:38:12.184Z,5.23
2023-03-28T19:40:58.461Z,5.21
2023-03-28T19:43:44.684Z,5.19
2023-03-28T19:46:34.683Z,5.14
2023-03-28T19:49:22.393Z,5.12
2023-03-28T19:52:09.949Z,5.10
2023-03-28T19:54:56.132Z,5.03
2023-03-28T19:57:42.221Z,4.98
2023-03-28T20:00:28.741Z,4.98
2023-03-28T20:03:16.219Z,4.98
2023-03-28T20:06:03.251Z,4.97
2023-03-28T20:08:49.234Z,4.93
2023-03-28T20:11:35.578Z,4.93
2023-03-28T20:14:21.442Z,4.85
2023-03-28T20:17:07.454Z,4.80
2023-03-28T20:19:54.449Z,4.79
2023-03-28T20:22:40.467Z,4.74
2023-03-28T20:25:26.981Z,4.72
2023-03-28T20:28:14.118Z,4.74
2023-03-28T20:31:00.385Z,4.73
2023-03-28T20:33:46.423Z,4.70
2023-03-28T20:36:33.506Z,4.71
2023-03-28T20:39:19.259Z,4.69
2023-03-28T20:42:05.918Z,4.71
2023-03-28T20:44:51.741Z,4.69
2023-03-28T20:47:38.591Z,4.73
2023-03-28T20:50:25.774Z,4.71
2023-03-28T20:53:13.175Z,4.75
2023-03-28T20:56:03.509Z,4.75
2023-03-28T20:58:50.850Z,4.74
2023-03-28T21:01:39.393Z,4.74
2023-03-28T21:04:27.266Z,4.74
2023-03-28T21:07:13.999Z,4.77
2023-03-28T21:10:01.421Z,4.75
2023-03-28T21:12:47.404Z,4.74
2023-03-28T21:15:34.627Z,4.73
2023-03-28T21:18:20.593Z,4.70
2023-03-28T21:21:07.346Z,4.71
2023-03-28T21:23:53.246Z,4.75
2023-03-28T21:26:41.001Z,4.72
2023-03-28T21:29:27.541Z,4.73
2023-03-28T21:32:14.637Z,4.72
2023-03-28T21:35:02.225Z,4.70
2023-03-28T21:37:48.466Z,4.71
2023-03-28T21:40:35.381Z,4.73
2023-03-28T21:43:23.384Z,4.70
2023-03-28T21:46:09.437Z,4.70
2023-03-28T21:48:55.592Z,4.69
2023-03-28T21:51:41.735Z,4.71
2023-03-28T21:54:27.465Z,4.72
2023-03-28T21:57:13.377Z,4.72
2023-03-28T22:00:00.703Z,4.75
2023-03-28T22:02:47.135Z,4.76
2023-03-28T22:05:33.082Z,4.78
2023-03-28T22:08:19.061Z,4.79
2023-03-28T22:11:10.767Z,4.80
2023-03-28T22:14:02.126Z,4.82
2023-03-28T22:16:51.161Z,4.82
2023-03-28T22:19:37.772Z,4.85
2023-03-28T22:22:28.265Z,4.89
2023-03-28T22:25:15.175Z,4.92
2023-03-28T22:28:01.407Z,4.92
2023-03-28T22:30:47.316Z,4.91
2023-03-28T22:33:34.752Z,4.93
2023-03-28T22:36:21.076Z,4.93
2023-03-28T22:39:07.592Z,4.93
2023-03-28T22:41:54.658Z,4.97
2023-03-28T22:44:40.820Z,4.98
2023-03-28T22:47:31.362Z,4.99
2023-03-28T22:50:19.091Z,4.99
2023-03-28T22:53:04.873Z,5.00
2023-03-28T22:55:51.263Z,4.97
2023-03-28T22:58:37.320Z,4.97
2023-03-28T23:01:25.892Z,5.00
2023-03-28T23:04:13.210Z,5.01
2023-03-28T23:07:00.420Z,5.01
2023-03-28T23:09:46.244Z,5.00
2023-03-28T23:12:31.929Z,4.99
2023-03-28T23:15:17.751Z,4.99
2023-03-28T23:18:03.649Z,4.98
2023-03-28T23:20:50.835Z,4.97
2023-03-28T23:23:38.828Z,4.99
2023-03-28T23:26:24.591Z,5.01
2023-03-28T23:29:10.332Z,5.02
2023-03-28T23:31:56.279Z,5.06
2023-03-28T23:34:42.333Z,5.07
2023-03-28T23:37:29.114Z,5.10
2023-03-28T23:40:17.147Z,5.12
2023-03-28T23:43:03.209Z,5.14
2023-03-28T23:45:48.991Z,5.18
2023-03-28T23:48:36.072Z,5.19
2023-03-28T23:51:24.236Z,5.23
2023-03-28T23:54:10.175Z,5.23
2023-03-28T23:56:57.541Z,5.25
2023-03-28T23:59:43.485Z,5.26
